createdAt,value
2022-11-03T00:02:42.615Z,14.37
2022-11-03T00:17:46.117Z,15.20
2022-11-03T00:32:47.794Z,18.17
2022-11-03T00:48:08.184Z,21.90
2022-11-03T01:03:09.968Z,21.63
2022-11-03T01:18:11.665Z,20.50
2022-11-03T01:33:13.327Z,20.43
2022-11-03T01:48:18.989Z,19.60
2022-11-03T02:03:21.776Z,18.20
2022-11-03T02:18:27.259Z,17.27
2022-11-03T02:33:51.872Z,16.77
2022-11-03T02:48:53.493Z,18.97
2022-11-03T03:04:06.724Z,14.80
2022-11-03T03:19:08.312Z,10.60
2022-11-03T03:34:31.443Z,13.10
2022-11-03T03:49:32.791Z,11.17
2022-11-03T04:04:34.736Z,11.33
2022-11-03T04:19:55.091Z,11.63
2022-11-03T04:34:56.812Z,10.70
2022-11-03T04:49:58.890Z,10.43
2022-11-03T05:05:01.256Z,11.60
2022-11-03T10:30:13.413Z,6.32
2022-11-03T10:45:15.436Z,4.50
2022-11-03T11:00:18.188Z,4.30
2022-11-03T11:15:39.559Z,5.60
2022-11-03T11:30:41.583Z,16.77
2022-11-03T11:46:20.399Z,19.30
2022-11-03T12:01:34.145Z,5.50
2022-11-03T12:16:36.851Z,4.87
2022-11-03T13:02:11.389Z,4.83
2022-11-03T13:17:13.467Z,3.77
2022-11-03T13:32:15.341Z,4.40
2022-11-03T13:47:29.918Z,4.27
2022-11-03T14:18:06.093Z,3.80
2022-11-03T14:33:08.429Z,12.93
2022-11-03T14:48:10.830Z,4.27
2022-11-03T15:03:12.883Z,5.40
2022-11-03T15:18:14.772Z,6.30
2022-11-03T15:33:17.493Z,6.37
2022-11-03T15:48:19.434Z,8.13
2022-11-03T16:03:21.557Z,8.63
2022-11-03T16:18:23.524Z,6.50
2022-11-03T16:33:25.341Z,4.83
2022-11-03T16:48:27.151Z,5.60
2022-11-03T17:03:29.295Z,8.50
2022-11-03T17:18:31.304Z,9.57
2022-11-03T17:33:34.265Z,7.90
2022-11-03T17:48:36.176Z,14.43
2022-11-03T18:03:38.206Z,6.23
2022-11-03T18:18:42.719Z,6.47
2022-11-03T18:33:52.294Z,8.37
2022-11-03T18:48:54.376Z,8.23
2022-11-03T19:03:59.618Z,7.97
2022-11-03T19:19:01.736Z,6.43
2022-11-03T19:34:06.218Z,5.80
2022-11-03T19:49:14.967Z,6.27
2022-11-03T20:04:16.922Z,6.97
2022-11-03T20:19:18.786Z,6.40
2022-11-03T20:49:24.479Z,8.17
2022-11-03T21:04:29.160Z,8.60
2022-11-03T21:19:51.403Z,8.67
2022-11-03T21:34:53.352Z,7.97
2022-11-03T21:49:55.361Z,9.07
2022-11-03T22:04:58.038Z,9.07
2022-11-03T22:20:18.300Z,10.00
2022-11-03T22:35:39.804Z,8.80
2022-11-03T22:50:41.661Z,9.20
2022-11-03T23:05:43.608Z,9.13
2022-11-03T23:21:03.884Z,9.23
2022-11-03T23:36:13.538Z,9.97
2022-11-03T23:51:18.457Z,10.60
